sensor_id;sensor_type;location;lat;lon;timestamp;temperature;humidity
13686;DHT22;6915;48.296;8.874;2023-09-19T01:49:18;15.50;99.90
13686;DHT22;6915;48.296;8.874;2023-09-19T01:51:53;15.50;99.90
13686;DHT22;6915;48.296;8.874;2023-09-19T01:54:26;15.40;99.90
13686;DHT22;6915;48.296;8.874;2023-09-19T01:57:00;15.40;99.90
13686;DHT22;6915;48.296;8.874;2023-09-19T01:59:35;15.40;99.90
13686;DHT22;6915;48.296;8.874;2023-09-19T02:02:06;15.30;99.90
13686;DHT22;6915;48.296;8.874;2023-09-19T02:04:35;15.40;99.90
13686;DHT22;6915;48.296;8.874;2023-09-19T02:07:02;15.30;99.90
13686;DHT22;6915;48.296;8.874;2023-09-19T02:09:31;15.30;99.90
13686;DHT22;6915;48.296;8.874;2023-09-19T02:11:58;15.20;99.90
13686;DHT22;6915;48.296;8.874;2023-09-19T02:14:26;15.30;99.90
13686;DHT22;6915;48.296;8.874;2023-09-19T02:16:55;15.30;99.90
13686;DHT22;6915;48.296;8.874;2023-09-19T02:19:22;15.30;99.90
13686;DHT22;6915;48.296;8.874;2023-09-19T02:21:50;15.30;99.90
13686;DHT22;6915;48.296;8.874;2023-09-19T02:24:17;15.30;99.90
13686;DHT22;6915;48.296;8.874;2023-09-19T02:26:44;15.30;99.90
13686;DHT22;6915;48.296;8.874;2023-09-19T02:29:12;15.30;99.90
13686;DHT22;6915;48.296;8.874;2023-09-19T02:31:39;15.30;99.90
13686;DHT22;6915;48.296;8.874;2023-09-19T02:34:07;15.30;99.90
13686;DHT22;6915;48.296;8.874;2023-09-19T02:36:35;15.20;99.90
13686;DHT22;6915;48.296;8.874;2023-09-19T02:39:04;15.20;99.90
13686;DHT22;6915;48.296;8.874;2023-09-19T02:41:34;15.30;99.90
13686;DHT22;6915;48.296;8.874;2023-09-19T02:44:01;15.30;99.90
13686;DHT22;6915;48.296;8.874;2023-09-19T02:46:28;15.30;99.90
13686;DHT22;6915;48.296;8.874;2023-09-19T02:48:55;15.30;99.90
13686;DHT22;6915;48.296;8.874;2023-09-19T02:51:22;15.20;99.90
13686;DHT22;6915;48.296;8.874;2023-09-19T02:53:49;15.30;99.90
13686;DHT22;6915;48.296;8.874;2023-09-19T02:56:19;15.20;99.90
13686;DHT22;6915;48.296;8.874;2023-09-19T02:58:46;15.20;99.90
13686;DHT22;6915;48.296;8.874;2023-09-19T03:01:14;15.30;99.90
13686;DHT22;6915;48.296;8.874;2023-09-19T03:03:41;15.30;99.90
13686;DHT22;6915;48.296;8.874;2023-09-19T03:06:08;15.30;99.90
13686;DHT22;6915;48.296;8.874;2023-09-19T03:08:35;15.30;99.90
13686;DHT22;6915;48.296;8.874;2023-09-19T03:11:04;15.30;99.90
13686;DHT22;6915;48.296;8.874;2023-09-19T03:13:35;15.30;99.90
13686;DHT22;6915;48.296;8.874;2023-09-19T03:16:03;15.30;99.90
13686;DHT22;6915;48.296;8.874;2023-09-19T03:18:31;15.30;99.90
13686;DHT22;6915;48.296;8.874;2023-09-19T03:20:58;15.20;99.90
13686;DHT22;6915;48.296;8.874;2023-09-19T03:23:27;15.30;99.90
13686;DHT22;6915;48.296;8.874;2023-09-19T03:25:54;15.30;99.90
13686;DHT22;6915;48.296;8.874;2023-09-19T03:28:21;15.30;99.90
13686;DHT22;6915;48.296;8.874;2023-09-19T03:30:59;15.30;99.90
13686;DHT22;6915;48.296;8.874;2023-09-19T03:33:27;15.40;99.90
13686;DHT22;6915;48.296;8.874;2023-09-19T03:35:54;15.40;99.90
13686;DHT22;6915;48.296;8.874;2023-09-19T03:38:23;15.40;99.90
13686;DHT22;6915;48.296;8.874;2023-09-19T03:40:50;15.40;99.90
13686;DHT22;6915;48.296;8.874;2023-09-19T03:43:16;15.40;99.90
13686;DHT22;6915;48.296;8.874;2023-09-19T03:45:44;15.30;99.90
13686;DHT22;6915;48.296;8.874;2023-09-19T03:48:13;15.40;99.90
13686;DHT22;6915;48.296;8.874;2023-09-19T03:50:40;15.40;99.90
13686;DHT22;6915;48.296;8.874;2023-09-19T03:53:09;15.40;99.90
13686;DHT22;6915;48.296;8.874;2023-09-19T03:55:36;15.30;99.90
13686;DHT22;6915;48.296;8.874;2023-09-19T03:58:04;15.30;99.90
13686;DHT22;6915;48.296;8.874;2023-09-19T04:00:31;15.30;99.90
13686;DHT22;6915;48.296;8.874;2023-09-19T04:02:58;15.20;99.90
13686;DHT22;6915;48.296;8.874;2023-09-19T04:05:27;15.30;99.90
13686;DHT22;6915;48.296;8.874;2023-09-19T04:07:54;15.20;99.90
13686;DHT22;6915;48.296;8.874;2023-09-19T04:10:21;15.20;99.90
13686;DHT22;6915;48.296;8.874;2023-09-19T04:12:51;15.30;99.90
13686;DHT22;6915;48.296;8.874;2023-09-19T04:15:19;15.20;99.90
13686;DHT22;6915;48.296;8.874;2023-09-19T04:17:48;15.20;99.90
13686;DHT22;6915;48.296;8.874;2023-09-19T04:20:15;15.20;99.90
13686;DHT22;6915;48.296;8.874;2023-09-19T04:22:44;15.20;99.90
13686;DHT22;6915;48.296;8.874;2023-09-19T04:25:11;15.10;99.90
13686;DHT22;6915;48.296;8.874;2023-09-19T04:27:38;15.10;99.90
13686;DHT22;6915;48.296;8.874;2023-09-19T04:30:06;15.00;99.90
13686;DHT22;6915;48.296;8.874;2023-09-19T04:32:37;15.00;99.90
13686;DHT22;6915;48.296;8.874;2023-09-19T04:35:06;15.00;99.90
13686;DHT22;6915;48.296;8.874;2023-09-19T04:37:36;14.90;99.90
13686;DHT22;6915;48.296;8.874;2023-09-19T04:40:07;14.90;99.90
13686;DHT22;6915;48.296;8.874;2023-09-19T04:42:39;14.80;99.90
13686;DHT22;6915;48.296;8.874;2023-09-19T04:45:07;14.90;99.90
13686;DHT22;6915;48.296;8.874;2023-09-19T04:47:35;14.80;99.90
13686;DHT22;6915;48.296;8.874;2023-09-19T04:50:08;14.80;99.90
13686;DHT22;6915;48.296;8.874;2023-09-19T04:52:39;14.80;99.90
13686;DHT22;6915;48.296;8.874;2023-09-19T04:55:09;14.80;99.90
13686;DHT22;6915;48.296;8.874;2023-09-19T04:57:36;14.80;99.90
13686;DHT22;6915;48.296;8.874;2023-09-19T05:00:05;14.90;99.90
13686;DHT22;6915;48.296;8.874;2023-09-19T05:02:38;14.80;99.90
13686;DHT22;6915;48.296;8.874;2023-09-19T05:05:06;14.70;99.90
13686;DHT22;6915;48.296;8.874;2023-09-19T05:07:33;14.80;99.90
13686;DHT22;6915;48.296;8.874;2023-09-19T05:10:01;14.80;99.90
13686;DHT22;6915;48.296;8.874;2023-09-19T05:12:33;14.70;99.90
13686;DHT22;6915;48.296;8.874;2023-09-19T05:15:08;14.70;99.90
13686;DHT22;6915;48.296;8.874;2023-09-19T05:17:35;14.60;99.90
13686;DHT22;6915;48.296;8.874;2023-09-19T05:20:04;14.50;99.90
13686;DHT22;6915;48.296;8.874;2023-09-19T05:22:41;14.50;99.90
13686;DHT22;6915;48.296;8.874;2023-09-19T05:25:08;14.60;99.90
13686;DHT22;6915;48.296;8.874;2023-09-19T05:27:37;14.60;99.90
13686;DHT22;6915;48.296;8.874;2023-09-19T05:30:05;14.60;99.90
13686;DHT22;6915;48.296;8.874;2023-09-19T05:32:32;14.60;99.90
13686;DHT22;6915;48.296;8.874;2023-09-19T05:34:59;14.70;99.90
13686;DHT22;6915;48.296;8.874;2023-09-19T05:37:26;14.80;99.90
13686;DHT22;6915;48.296;8.874;2023-09-19T05:39:53;14.80;99.90
13686;DHT22;6915;48.296;8.874;2023-09-19T05:42:20;14.90;99.90
13686;DHT22;6915;48.296;8.874;2023-09-19T05:44:48;14.90;99.90
13686;DHT22;6915;48.296;8.874;2023-09-19T05:47:15;15.00;99.90
13686;DHT22;6915;48.296;8.874;2023-09-19T05:49:42;15.00;99.90
13686;DHT22;6915;48.296;8.874;2023-09-19T05:52:09;15.10;99.90
13686;DHT22;6915;48.296;8.874;2023-09-19T05:54:36;15.10;99.90
13686;DHT22;6915;48.296;8.874;2023-09-19T05:57:03;15.20;99.90
13686;DHT22;6915;48.296;8.874;2023-09-19T05:59:30;15.20;99.90
13686;DHT22;6915;48.296;8.874;2023-09-19T06:02:00;15.10;99.90
13686;DHT22;6915;48.296;8.874;2023-09-19T06:04:27;15.40;99.90
13686;DHT22;6915;48.296;8.874;2023-09-19T06:06:56;15.50;99.90
13686;DHT22;6915;48.296;8.874;2023-09-19T06:09:23;15.60;99.90
13686;DHT22;6915;48.296;8.874;2023-09-19T06:11:53;15.60;99.90
13686;DHT22;6915;48.296;8.874;2023-09-19T06:14:21;15.60;99.90
13686;DHT22;6915;48.296;8.874;2023-09-19T06:16:50;15.50;99.90
13686;DHT22;6915;48.296;8.874;2023-09-19T06:19:21;15.50;99.90
13686;DHT22;6915;48.296;8.874;2023-09-19T06:21:52;15.40;99.90
13686;DHT22;6915;48.296;8.874;2023-09-19T06:24:20;15.40;99.90
13686;DHT22;6915;48.296;8.874;2023-09-19T06:26:47;15.30;99.90
13686;DHT22;6915;48.296;8.874;2023-09-19T06:29:15;15.40;99.90
13686;DHT22;6915;48.296;8.874;2023-09-19T06:31:42;15.40;99.90
13686;DHT22;6915;48.296;8.874;2023-09-19T06:34:10;15.50;99.90
13686;DHT22;6915;48.296;8.874;2023-09-19T06:36:38;15.40;99.90
13686;DHT22;6915;48.296;8.874;2023-09-19T06:39:06;15.60;99.90
13686;DHT22;6915;48.296;8.874;2023-09-19T06:41:36;15.70;99.90
13686;DHT22;6915;48.296;8.874;2023-09-19T06:44:04;15.70;99.90
13686;DHT22;6915;48.296;8.874;2023-09-19T06:46:31;15.80;99.90
13686;DHT22;6915;48.296;8.874;2023-09-19T06:49:00;15.90;99.90
13686;DHT22;6915;48.296;8.874;2023-09-19T06:51:29;16.00;99.90
13686;DHT22;6915;48.296;8.874;2023-09-19T06:53:57;16.10;99.90
13686;DHT22;6915;48.296;8.874;2023-09-19T06:56:25;16.20;99.90
13686;DHT22;6915;48.296;8.874;2023-09-19T06:58:51;16.30;99.90
13686;DHT22;6915;48.296;8.874;2023-09-19T07:01:18;16.30;99.90
13686;DHT22;6915;48.296;8.874;2023-09-19T07:03:45;16.30;99.90
13686;DHT22;6915;48.296;8.874;2023-09-19T07:06:12;16.40;99.90
13686;DHT22;6915;48.296;8.874;2023-09-19T07:08:39;16.50;99.90
13686;DHT22;6915;48.296;8.874;2023-09-19T07:11:08;16.50;99.90
13686;DHT22;6915;48.296;8.874;2023-09-19T07:13:35;16.60;99.90
13686;DHT22;6915;48.296;8.874;2023-09-19T07:16:02;16.60;99.90
13686;DHT22;6915;48.296;8.874;2023-09-19T07:18:29;16.80;99.90
13686;DHT22;6915;48.296;8.874;2023-09-19T07:20:57;16.80;99.90
13686;DHT22;6915;48.296;8.874;2023-09-19T07:23:31;16.70;99.90
13686;DHT22;6915;48.296;8.874;2023-09-19T07:26:00;16.60;99.90
13686;DHT22;6915;48.296;8.874;2023-09-19T07:28:32;16.50;99.90
13686;DHT22;6915;48.296;8.874;2023-09-19T07:31:02;16.40;99.90
13686;DHT22;6915;48.296;8.874;2023-09-19T07:33:30;16.30;99.90
13686;DHT22;6915;48.296;8.874;2023-09-19T07:35:57;16.20;99.90
13686;DHT22;6915;48.296;8.874;2023-09-19T07:38:24;16.20;99.90
13686;DHT22;6915;48.296;8.874;2023-09-19T07:40:52;16.10;99.90
13686;DHT22;6915;48.296;8.874;2023-09-19T07:43:20;15.90;99.90
13686;DHT22;6915;48.296;8.874;2023-09-19T07:45:48;15.70;99.90
13686;DHT22;6915;48.296;8.874;2023-09-19T07:48:15;15.60;99.90
13686;DHT22;6915;48.296;8.874;2023-09-19T07:50:42;15.60;99.90
13686;DHT22;6915;48.296;8.874;2023-09-19T07:53:10;15.50;99.90
13686;DHT22;6915;48.296;8.874;2023-09-19T07:55:38;15.50;99.90
13686;DHT22;6915;48.296;8.874;2023-09-19T07:58:06;15.40;99.90
13686;DHT22;6915;48.296;8.874;2023-09-19T10:05:16;19.20;99.90
13686;DHT22;6915;48.296;8.874;2023-09-19T10:08:11;19.50;99.90
13686;DHT22;6915;48.296;8.874;2023-09-19T10:10:49;19.60;99.90
13686;DHT22;6915;48.296;8.874;2023-09-19T10:13:36;19.80;99.90
13686;DHT22;6915;48.296;8.874;2023-09-19T10:19:36;20.00;99.90
13686;DHT22;6915;48.296;8.874;2023-09-19T10:25:17;20.30;99.90
13686;DHT22;6915;48.296;8.874;2023-09-19T10:28:20;20.40;99.90
13686;DHT22;6915;48.296;8.874;2023-09-19T10:31:14;20.50;99.90
13686;DHT22;6915;48.296;8.874;2023-09-19T10:34:06;21.00;99.90
13686;DHT22;6915;48.296;8.874;2023-09-19T10:36:39;21.10;99.90
13686;DHT22;6915;48.296;8.874;2023-09-19T10:39:14;21.00;99.90
13686;DHT22;6915;48.296;8.874;2023-09-19T10:41:49;20.60;99.90
13686;DHT22;6915;48.296;8.874;2023-09-19T10:44:24;20.40;99.90
13686;DHT22;6915;48.296;8.874;2023-09-19T10:46:54;20.10;99.90
13686;DHT22;6915;48.296;8.874;2023-09-19T10:49:22;19.80;99.90
13686;DHT22;6915;48.296;8.874;2023-09-19T10:51:55;19.60;99.90
13686;DHT22;6915;48.296;8.874;2023-09-19T10:54:29;19.40;99.90
13686;DHT22;6915;48.296;8.874;2023-09-19T11:00:14;19.90;99.90
13686;DHT22;6915;48.296;8.874;2023-09-19T11:03:18;20.50;99.90
13686;DHT22;6915;48.296;8.874;2023-09-19T11:06:05;21.00;99.90
13686;DHT22;6915;48.296;8.874;2023-09-19T11:09:01;21.30;99.90
13686;DHT22;6915;48.296;8.874;2023-09-19T11:11:54;21.40;99.90
13686;DHT22;6915;48.296;8.874;2023-09-19T11:14:41;21.50;99.90
13686;DHT22;6915;48.296;8.874;2023-09-19T11:17:41;21.60;99.90
13686;DHT22;6915;48.296;8.874;2023-09-19T11:20:31;21.60;99.90
13686;DHT22;6915;48.296;8.874;2023-09-19T11:23:18;21.70;99.90
13686;DHT22;6915;48.296;8.874;2023-09-19T11:25:49;21.70;99.90
13686;DHT22;6915;48.296;8.874;2023-09-19T11:28:34;21.60;99.90
13686;DHT22;6915;48.296;8.874;2023-09-19T11:34:47;21.10;99.90
13686;DHT22;6915;48.296;8.874;2023-09-19T11:40:45;21.20;99.90
13686;DHT22;6915;48.296;8.874;2023-09-19T11:43:31;21.10;99.90
13686;DHT22;6915;48.296;8.874;2023-09-19T11:46:12;20.80;99.90
13686;DHT22;6915;48.296;8.874;2023-09-19T11:48:43;20.70;99.90
13686;DHT22;6915;48.296;8.874;2023-09-19T11:51:18;20.50;99.90
13686;DHT22;6915;48.296;8.874;2023-09-19T11:53:48;20.40;99.90
13686;DHT22;6915;48.296;8.874;2023-09-19T11:56:28;20.30;99.90
13686;DHT22;6915;48.296;8.874;2023-09-19T11:59:31;20.40;99.90
13686;DHT22;6915;48.296;8.874;2023-09-19T12:02:13;20.90;99.90
13686;DHT22;6915;48.296;8.874;2023-09-19T12:04:53;21.00;99.90
13686;DHT22;6915;48.296;8.874;2023-09-19T12:07:59;21.00;99.90
13686;DHT22;6915;48.296;8.874;2023-09-19T12:10:41;21.20;99.90
13686;DHT22;6915;48.296;8.874;2023-09-19T12:13:32;21.10;99.90
13686;DHT22;6915;48.296;8.874;2023-09-19T12:16:12;21.40;99.90
13686;DHT22;6915;48.296;8.874;2023-09-19T12:18:43;21.10;99.90
13686;DHT22;6915;48.296;8.874;2023-09-19T12:21:38;20.80;99.90
13686;DHT22;6915;48.296;8.874;2023-09-19T12:25:02;21.20;99.90
13686;DHT22;6915;48.296;8.874;2023-09-19T12:27:50;21.60;99.90
13686;DHT22;6915;48.296;8.874;2023-09-19T12:51:26;22.40;99.90
13686;DHT22;6915;48.296;8.874;2023-09-19T12:54:40;22.50;99.90
13686;DHT22;6915;48.296;8.874;2023-09-19T16:22:35;22.00;99.90
13686;DHT22;6915;48.296;8.874;2023-09-19T16:25:16;21.90;99.90
13686;DHT22;6915;48.296;8.874;2023-09-19T16:27:50;21.80;99.90
13686;DHT22;6915;48.296;8.874;2023-09-19T16:30:17;21.70;99.90
13686;DHT22;6915;48.296;8.874;2023-09-19T16:32:49;21.60;99.90
13686;DHT22;6915;48.296;8.874;2023-09-19T16:39:02;21.40;99.90
13686;DHT22;6915;48.296;8.874;2023-09-19T16:41:43;21.20;99.90
13686;DHT22;6915;48.296;8.874;2023-09-19T16:44:13;21.10;99.90
13686;DHT22;6915;48.296;8.874;2023-09-19T16:46:43;21.10;99.90
13686;DHT22;6915;48.296;8.874;2023-09-19T16:49:16;21.00;99.90
13686;DHT22;6915;48.296;8.874;2023-09-19T16:51:46;21.00;99.90
13686;DHT22;6915;48.296;8.874;2023-09-19T16:54:18;21.00;99.90
13686;DHT22;6915;48.296;8.874;2023-09-19T16:56:50;20.90;99.90
13686;DHT22;6915;48.296;8.874;2023-09-19T16:59:21;20.90;99.90
13686;DHT22;6915;48.296;8.874;2023-09-19T17:02:12;20.70;99.90
13686;DHT22;6915;48.296;8.874;2023-09-19T17:08:40;20.60;99.90
13686;DHT22;6915;48.296;8.874;2023-09-19T17:11:27;20.40;99.90
13686;DHT22;6915;48.296;8.874;2023-09-19T17:14:01;20.40;99.90
13686;DHT22;6915;48.296;8.874;2023-09-19T17:16:42;20.20;99.90
13686;DHT22;6915;48.296;8.874;2023-09-19T17:19:27;20.10;99.90
13686;DHT22;6915;48.296;8.874;2023-09-19T17:22:02;20.00;99.90
13686;DHT22;6915;48.296;8.874;2023-09-19T17:24:33;19.90;99.90
13686;DHT22;6915;48.296;8.874;2023-09-19T17:27:30;19.90;99.90
13686;DHT22;6915;48.296;8.874;2023-09-19T17:30:07;19.70;99.90
13686;DHT22;6915;48.296;8.874;2023-09-19T17:32:43;19.40;99.90
13686;DHT22;6915;48.296;8.874;2023-09-19T17:35:13;19.00;99.90
13686;DHT22;6915;48.296;8.874;2023-09-19T17:37:51;18.90;99.90
13686;DHT22;6915;48.296;8.874;2023-09-19T17:40:22;18.80;99.90
13686;DHT22;6915;48.296;8.874;2023-09-19T17:42:54;18.70;99.90
13686;DHT22;6915;48.296;8.874;2023-09-19T17:45:30;18.40;99.90
13686;DHT22;6915;48.296;8.874;2023-09-19T17:48:12;18.30;99.90
13686;DHT22;6915;48.296;8.874;2023-09-19T17:51:04;18.20;99.90
13686;DHT22;6915;48.296;8.874;2023-09-19T17:53:54;18.00;99.90
13686;DHT22;6915;48.296;8.874;2023-09-19T17:56:34;17.60;99.90
13686;DHT22;6915;48.296;8.874;2023-09-19T17:59:11;17.40;99.90
13686;DHT22;6915;48.296;8.874;2023-09-19T18:01:43;17.20;99.90
13686;DHT22;6915;48.296;8.874;2023-09-19T18:04:18;17.20;99.90
13686;DHT22;6915;48.296;8.874;2023-09-19T18:07:01;17.10;99.90
13686;DHT22;6915;48.296;8.874;2023-09-19T18:09:57;17.00;99.90
13686;DHT22;6915;48.296;8.874;2023-09-19T18:12:37;17.00;99.90
13686;DHT22;6915;48.296;8.874;2023-09-19T18:18:29;16.90;99.90
13686;DHT22;6915;48.296;8.874;2023-09-19T18:21:08;16.90;99.90
13686;DHT22;6915;48.296;8.874;2023-09-19T18:23:41;16.90;99.90
13686;DHT22;6915;48.296;8.874;2023-09-19T18:26:10;16.90;99.90
13686;DHT22;6915;48.296;8.874;2023-09-19T18:28:39;16.80;99.90
13686;DHT22;6915;48.296;8.874;2023-09-19T18:31:36;16.70;99.90
13686;DHT22;6915;48.296;8.874;2023-09-19T18:34:25;16.60;99.90
13686;DHT22;6915;48.296;8.874;2023-09-19T18:36:59;16.40;99.90
13686;DHT22;6915;48.296;8.874;2023-09-19T18:39:32;16.00;99.90
13686;DHT22;6915;48.296;8.874;2023-09-19T18:42:07;16.10;99.90
13686;DHT22;6915;48.296;8.874;2023-09-19T18:44:53;16.00;99.90
13686;DHT22;6915;48.296;8.874;2023-09-19T18:47:25;15.90;99.90
13686;DHT22;6915;48.296;8.874;2023-09-19T18:52:55;15.80;99.90
13686;DHT22;6915;48.296;8.874;2023-09-19T18:55:39;15.70;99.90
13686;DHT22;6915;48.296;8.874;2023-09-19T18:58:20;15.70;99.90
13686;DHT22;6915;48.296;8.874;2023-09-19T19:01:06;15.70;99.90
13686;DHT22;6915;48.296;8.874;2023-09-19T19:03:44;15.60;99.90
13686;DHT22;6915;48.296;8.874;2023-09-19T21:42:43;13.00;99.90
13686;DHT22;6915;48.296;8.874;2023-09-19T21:45:16;13.10;99.90
13686;DHT22;6915;48.296;8.874;2023-09-19T21:47:48;12.90;99.90
13686;DHT22;6915;48.296;8.874;2023-09-19T21:50:24;12.80;99.90
13686;DHT22;6915;48.296;8.874;2023-09-19T21:53:18;12.80;99.90
13686;DHT22;6915;48.296;8.874;2023-09-19T21:56:06;12.80;99.90
13686;DHT22;6915;48.296;8.874;2023-09-19T21:58:59;12.70;99.90
13686;DHT22;6915;48.296;8.874;2023-09-19T22:01:33;12.60;99.90
13686;DHT22;6915;48.296;8.874;2023-09-19T22:04:05;12.60;99.90
13686;DHT22;6915;48.296;8.874;2023-09-19T22:06:48;12.50;99.90
13686;DHT22;6915;48.296;8.874;2023-09-19T22:09:23;12.50;99.90
13686;DHT22;6915;48.296;8.874;2023-09-19T22:11:59;12.50;99.90
13686;DHT22;6915;48.296;8.874;2023-09-19T22:14:56;12.50;99.90
13686;DHT22;6915;48.296;8.874;2023-09-19T22:17:28;12.60;99.90
13686;DHT22;6915;48.296;8.874;2023-09-19T22:20:02;12.50;99.90
13686;DHT22;6915;48.296;8.874;2023-09-19T22:23:00;12.40;99.90
13686;DHT22;6915;48.296;8.874;2023-09-19T22:28:52;12.40;99.90
13686;DHT22;6915;48.296;8.874;2023-09-19T22:31:32;12.30;99.90
13686;DHT22;6915;48.296;8.874;2023-09-19T22:34:13;12.30;99.90
13686;DHT22;6915;48.296;8.874;2023-09-19T22:36:46;12.20;99.90
13686;DHT22;6915;48.296;8.874;2023-09-19T22:39:52;12.10;99.90
13686;DHT22;6915;48.296;8.874;2023-09-19T22:42:51;12.10;99.90
13686;DHT22;6915;48.296;8.874;2023-09-19T22:45:28;12.00;99.90
13686;DHT22;6915;48.296;8.874;2023-09-19T22:48:15;12.00;99.90
13686;DHT22;6915;48.296;8.874;2023-09-19T22:50:57;12.00;99.90
13686;DHT22;6915;48.296;8.874;2023-09-19T22:53:52;11.90;99.90
13686;DHT22;6915;48.296;8.874;2023-09-19T22:56:28;11.80;99.90
13686;DHT22;6915;48.296;8.874;2023-09-19T22:59:08;11.60;99.90
13686;DHT22;6915;48.296;8.874;2023-09-19T23:01:45;11.70;99.90
13686;DHT22;6915;48.296;8.874;2023-09-19T23:08:11;11.80;99.90
13686;DHT22;6915;48.296;8.874;2023-09-19T23:10:43;11.80;99.90
13686;DHT22;6915;48.296;8.874;2023-09-19T23:13:19;11.80;99.90
13686;DHT22;6915;48.296;8.874;2023-09-19T23:16:07;11.90;99.90
13686;DHT22;6915;48.296;8.874;2023-09-19T23:18:38;11.80;99.90
13686;DHT22;6915;48.296;8.874;2023-09-19T23:21:22;11.70;99.90
13686;DHT22;6915;48.296;8.874;2023-09-19T23:24:01;11.90;99.90
13686;DHT22;6915;48.296;8.874;2023-09-19T23:26:35;11.90;99.90
13686;DHT22;6915;48.296;8.874;2023-09-19T23:29:13;11.90;99.90
13686;DHT22;6915;48.296;8.874;2023-09-19T23:31:47;11.80;99.90
13686;DHT22;6915;48.296;8.874;2023-09-19T23:34:30;11.80;99.90
13686;DHT22;6915;48.296;8.874;2023-09-19T23:37:05;11.70;99.90
13686;DHT22;6915;48.296;8.874;2023-09-19T23:39:36;11.70;99.90
13686;DHT22;6915;48.296;8.874;2023-09-19T23:42:14;11.70;99.90
13686;DHT22;6915;48.296;8.874;2023-09-19T23:44:42;11.70;99.90
13686;DHT22;6915;48.296;8.874;2023-09-19T23:47:17;11.80;99.90
13686;DHT22;6915;48.296;8.874;2023-09-19T23:49:46;11.60;99.90
13686;DHT22;6915;48.296;8.874;2023-09-19T23:52:14;11.60;99.90
13686;DHT22;6915;48.296;8.874;2023-09-19T23:54:44;11.50;99.90
13686;DHT22;6915;48.296;8.874;2023-09-19T23:57:13;11.50;99.90
13686;DHT22;6915;48.296;8.874;2023-09-19T23:59:43;11.40;99.90
